Impacts METAR Board
IDs:

KLAX - Los Angeles Intl, CA, US

Updated at: 2000 UTC 16 Aug 2018
Potential Impact None Slight Moderate High
Time 16/08Z 16/09Z 16/10Z 16/11Z 16/12Z 16/13Z 16/14Z 16/15Z 16/16Z 16/17Z 16/18Z 16/19Z 16/20Z
Temp72 73 72 72 72 72 72 74 75 78 79 79 79
Dewpt66 66 67 66 66 65 65 66 66 66 67 67 67
Altim29.95 29.94 29.94 29.95 29.95 29.97 30.00 30.01 30.02 30.02 30.02 30.01 30.02
VIS10 10 10 10 10 10 9 9 9 10 9 10 10
CIG-- 14 14 13 14 13 15 18 18 -- -- -- --
CoverFEWBKNBKNOVCOVCOVCBKNBKNBKNFEWFEWFEWFEW
FltCatVFRMVFRMVFRMVFRMVFRMVFRMVFRMVFRMVFRVFRVFRVFRVFR
WX--------------------------
WDir210024016015080011000260240260
WSpd3 0 4 4 4 4 0 4 3 3 9 11 11
WGst-- -- -- -- -- -- -- -- -- -- -- -- --
Raw hourly METARs
KLAX 160753Z 21003KT 10SM FEW014 22/19 A2995 RMK AO2 SLP139 T02220189 402610211 $
KLAX 160853Z 00000KT 10SM BKN014 23/19 A2994 RMK AO2 SLP135 T02280189 58001 $
KLAX 160953Z 24004KT 10SM BKN014 22/19 A2994 RMK AO2 SLP137 T02220194 $
KLAX 161053Z 16004KT 10SM OVC013 22/19 A2995 RMK AO2 SLP140 CIG 011V015 T02220189 $
KLAX 161153Z 15004KT 10SM OVC014 22/19 A2995 RMK AO2 SLP140 T02220189 10228 20222 51005 $
KLAX 161253Z 08004KT 10SM OVC013 22/18 A2997 RMK AO2 SLP147 T02220183 $
KLAX 161353Z 00000KT 9SM BKN015 22/18 A3000 RMK AO2 SLP156 T02220183 $
KLAX 161453Z 11004KT 9SM BKN018 23/19 A3001 RMK AO2 SLP161 BKN V OVC T02330189 51020 $
KLAX 161553Z VRB03KT 9SM BKN018 24/19 A3002 RMK AO2 SLP163 T02390189
KLAX 161653Z VRB03KT 10SM FEW019 26/19 A3002 RMK AO2 SLP162 T02560189
KLAX 161753Z 26009KT 9SM FEW020 26/19 A3002 RMK AO2 SLP163 T02610194 10267 20222 51003
KLAX 161853Z 24011KT 10SM FEW020 26/19 A3001 RMK AO2 SLP161 T02610194
KLAX 161953Z 26011KT 10SM FEW027 26/19 A3002 RMK AO2 SLP162 CB DSNT E T02610194



Page loaded:  20:19 UTC  |   01:19 PM Pacific  |   02:19 PM Mountain  |   03:19 PM Central  |   04:19 PM Eastern

 

ADVISORIES

FORECASTS

FORECASTS

OBSERVATIONS

USER TOOLS

ABOUT US